createdAt,value
2018-02-03T00:01:31.516Z,67.60
2018-02-03T00:03:59.386Z,67.60
2018-02-03T00:06:27.818Z,67.50
2018-02-03T00:08:55.494Z,67.50
2018-02-03T00:11:23.239Z,67.60
2018-02-03T00:13:50.994Z,67.40
2018-02-03T00:16:19.353Z,67.60
2018-02-03T00:18:47.988Z,67.10
2018-02-03T00:21:15.729Z,67.20
2018-02-03T00:23:43.610Z,67.20
2018-02-03T00:26:11.354Z,67.30
2018-02-03T00:28:39.206Z,67.30
2018-02-03T00:31:07.058Z,67.90
2018-02-03T00:33:35.334Z,67.20
2018-02-03T00:36:03.610Z,67.30
2018-02-03T00:38:32.114Z,67.30
2018-02-03T00:40:59.978Z,67.30
2018-02-03T00:43:27.735Z,67.10
2018-02-03T00:45:55.618Z,67.60
2018-02-03T00:48:23.501Z,67.80
2018-02-03T00:50:51.394Z,67.50
2018-02-03T00:53:19.154Z,67.20
2018-02-03T00:55:46.906Z,67.40
2018-02-03T00:58:14.768Z,67.80
2018-02-03T01:00:42.630Z,67.60
2018-02-03T01:03:10.259Z,67.60
2018-02-03T01:05:37.935Z,67.30
2018-02-03T01:08:05.898Z,67.80
2018-02-03T01:10:33.622Z,67.50
2018-02-03T01:13:02.163Z,68.20
2018-02-03T01:15:29.871Z,67.70
2018-02-03T01:17:58.349Z,67.50
2018-02-03T01:20:26.889Z,67.50
2018-02-03T01:22:54.598Z,67.50
2018-02-03T01:25:23.133Z,67.50
2018-02-03T01:27:50.838Z,67.50
2018-02-03T01:30:19.276Z,68.00
2018-02-03T01:32:46.891Z,67.70
2018-02-03T01:35:18.379Z,67.20
2018-02-03T01:37:46.642Z,67.20
2018-02-03T01:40:14.429Z,67.20
2018-02-03T01:42:41.986Z,67.40
2018-02-03T01:45:09.589Z,67.30
2018-02-03T01:47:50.213Z,67.40
2018-02-03T01:50:17.802Z,67.10
2018-02-03T01:52:45.483Z,67.10
2018-02-03T01:55:12.966Z,66.70
2018-02-03T01:57:40.654Z,66.60
2018-02-03T02:00:08.528Z,66.60
2018-02-03T02:02:37.107Z,66.80
2018-02-03T02:05:04.767Z,66.50
2018-02-03T02:07:32.470Z,66.60
2018-02-03T02:10:01.012Z,66.50
2018-02-03T02:12:28.673Z,66.10
2018-02-03T02:14:56.335Z,66.20
2018-02-03T02:17:24.104Z,66.50
2018-02-03T02:19:51.761Z,66.40
2018-02-03T02:22:19.467Z,66.10
2018-02-03T02:24:48.006Z,66.40
2018-02-03T02:27:15.509Z,66.30
2018-02-03T02:29:44.294Z,66.10
2018-02-03T02:32:11.899Z,66.00
2018-02-03T02:34:39.677Z,66.20
2018-02-03T02:37:07.382Z,66.00
2018-02-03T02:39:35.866Z,66.10
2018-02-03T02:42:04.301Z,66.00
2018-02-03T02:44:32.006Z,65.90
2018-02-03T02:47:00.697Z,65.50
2018-02-03T02:49:29.174Z,65.90
2018-02-03T02:51:57.447Z,66.10
2018-02-03T02:54:25.885Z,66.10
2018-02-03T02:56:53.590Z,66.00
2018-02-03T02:59:22.070Z,66.40
2018-02-03T03:01:50.508Z,66.10
2018-02-03T03:04:18.218Z,66.10
2018-02-03T03:06:46.582Z,66.40
2018-02-03T03:09:14.517Z,66.30
2018-02-03T03:11:42.281Z,66.20
2018-02-03T03:14:09.985Z,66.20
2018-02-03T03:16:38.424Z,66.40
2018-02-03T03:19:06.130Z,65.90
2018-02-03T03:21:34.566Z,65.70
2018-02-03T03:24:02.270Z,65.60
2018-02-03T03:26:29.931Z,65.50
2018-02-03T03:28:58.678Z,66.20
2018-02-03T03:31:26.342Z,65.50
2018-02-03T03:33:54.001Z,65.50
2018-02-03T03:36:21.765Z,65.60
2018-02-03T03:38:49.470Z,65.70
2018-02-03T03:41:17.950Z,65.20
2018-02-03T03:43:45.614Z,65.10
2018-02-03T03:46:14.095Z,65.40
2018-02-03T03:48:41.750Z,65.40
2018-02-03T03:51:10.295Z,65.40
2018-02-03T03:53:37.810Z,65.40
2018-02-03T03:56:06.539Z,64.90
2018-02-03T03:58:34.114Z,64.90
2018-02-03T04:01:01.634Z,65.60
2018-02-03T04:03:29.254Z,65.70
2018-02-03T04:05:57.541Z,65.30
2018-02-03T04:08:26.077Z,65.60
2018-02-03T04:10:53.694Z,65.60
2018-02-03T04:13:22.162Z,65.70
2018-02-03T04:15:50.459Z,65.80
2018-02-03T04:18:18.097Z,65.70
2018-02-03T04:20:46.427Z,65.70
2018-02-03T04:23:14.197Z,65.70
2018-02-03T04:25:41.902Z,65.80
2018-02-03T04:28:09.520Z,65.90
2018-02-03T04:30:38.190Z,65.90
2018-02-03T04:33:05.910Z,65.70
2018-02-03T04:35:34.206Z,66.40
2018-02-03T04:38:01.842Z,66.40
2018-02-03T04:40:30.211Z,66.10
2018-02-03T04:42:58.050Z,66.10
2018-02-03T04:45:25.712Z,66.30
2018-02-03T04:47:53.325Z,66.70
2018-02-03T04:50:22.059Z,67.10
2018-02-03T04:52:49.823Z,66.60
2018-02-03T04:55:17.588Z,66.30
2018-02-03T04:57:45.294Z,66.30
2018-02-03T05:00:13.832Z,66.10
2018-02-03T05:02:41.425Z,66.00
2018-02-03T05:05:09.094Z,66.30
2018-02-03T05:07:36.758Z,66.00
2018-02-03T05:10:05.298Z,66.30
2018-02-03T05:12:33.063Z,66.30
2018-02-03T05:15:00.766Z,66.60
2018-02-03T05:17:29.252Z,65.70
2018-02-03T05:19:57.558Z,66.30
2018-02-03T05:22:25.347Z,66.30
2018-02-03T05:24:53.050Z,66.60
2018-02-03T05:27:20.713Z,66.50
2018-02-03T05:29:49.002Z,65.70
2018-02-03T05:32:17.571Z,66.10
2018-02-03T05:34:45.294Z,66.10
2018-02-03T05:37:12.940Z,66.40
2018-02-03T05:39:40.671Z,65.90
2018-02-03T05:42:09.066Z,66.40
2018-02-03T05:44:38.786Z,66.40
2018-02-03T05:47:06.407Z,66.30
2018-02-03T05:49:33.961Z,66.10
2018-02-03T05:52:01.629Z,66.10
2018-02-03T05:54:30.113Z,66.10
2018-02-03T05:56:58.438Z,65.80
2018-02-03T05:59:26.127Z,65.70
2018-02-03T06:01:53.819Z,65.40
2018-02-03T06:04:22.137Z,65.80
2018-02-03T06:06:50.605Z,66.20
2018-02-03T06:09:18.292Z,66.10
2018-02-03T06:11:45.962Z,66.40
2018-02-03T06:14:13.615Z,66.20
2018-02-03T06:16:41.380Z,66.60
2018-02-03T06:19:08.909Z,66.30
2018-02-03T06:21:36.569Z,66.80
2018-02-03T06:24:04.262Z,66.70
2018-02-03T06:26:31.850Z,67.10
2018-02-03T06:28:59.585Z,66.60
2018-02-03T06:31:27.149Z,66.30
2018-02-03T06:33:54.805Z,66.10
2018-02-03T06:36:22.448Z,65.30
2018-02-03T06:38:50.066Z,65.60
2018-02-03T06:41:17.726Z,65.60
2018-02-03T06:43:45.556Z,64.90
2018-02-03T06:46:13.293Z,65.70
2018-02-03T06:48:40.876Z,65.70
2018-02-03T06:51:08.414Z,65.80
2018-02-03T06:53:36.201Z,65.40
2018-02-03T06:56:03.966Z,65.10
2018-02-03T06:58:31.670Z,64.80
2018-02-03T07:01:00.210Z,65.30
2018-02-03T07:03:27.919Z,65.20
2018-02-03T07:05:56.202Z,64.00
2018-02-03T07:08:24.674Z,64.00
2018-02-03T07:10:53.154Z,64.40
2018-02-03T07:13:21.018Z,64.30
2018-02-03T07:15:49.560Z,63.40
2018-02-03T07:18:17.528Z,63.40
2018-02-03T07:20:45.106Z,63.60
2018-02-03T07:23:12.753Z,63.40
2018-02-03T07:25:40.422Z,63.60
2018-02-03T07:28:08.075Z,64.40
2018-02-03T07:30:35.630Z,63.50
2018-02-03T07:33:03.338Z,62.30
2018-02-03T07:35:31.631Z,62.80
2018-02-03T07:38:00.296Z,63.10
2018-02-03T07:40:28.057Z,63.10
2018-02-03T07:42:55.722Z,64.10
2018-02-03T07:45:23.589Z,63.70
2018-02-03T07:47:51.333Z,63.90
2018-02-03T07:50:19.079Z,63.10
2018-02-03T07:52:46.635Z,63.20
2018-02-03T07:55:14.310Z,63.20
2018-02-03T07:57:42.062Z,62.60
2018-02-03T08:00:09.626Z,61.90
2018-02-03T08:02:37.289Z,61.90
2018-02-03T08:05:04.950Z,61.80
2018-02-03T08:07:32.698Z,62.00
2018-02-03T08:10:00.258Z,61.90
2018-02-03T08:12:27.933Z,62.10
2018-02-03T08:14:55.938Z,62.30
2018-02-03T08:17:23.662Z,62.10
2018-02-03T08:19:51.366Z,62.30
2018-02-03T08:22:19.746Z,61.70
2018-02-03T08:24:48.243Z,61.30
2018-02-03T08:27:16.752Z,61.70
2018-02-03T08:29:44.566Z,61.70
2018-02-03T08:32:12.230Z,62.00
2018-02-03T08:34:39.890Z,62.60
2018-02-03T08:37:07.554Z,61.30
2018-02-03T08:39:35.214Z,60.90
2018-02-03T08:42:02.878Z,60.80
2018-02-03T08:44:30.529Z,60.80
2018-02-03T08:46:58.190Z,60.80
2018-02-03T08:49:25.719Z,60.80
2018-02-03T08:51:53.462Z,60.50
2018-02-03T08:54:21.177Z,60.20
2018-02-03T08:56:48.834Z,60.70
2018-02-03T08:59:16.502Z,59.60
2018-02-03T09:01:44.153Z,59.00
2018-02-03T09:04:11.826Z,58.50
2018-02-03T09:06:39.487Z,58.00
2018-02-03T09:09:07.147Z,57.40
2018-02-03T09:11:34.806Z,58.10
2018-02-03T09:14:02.470Z,58.20
2018-02-03T09:16:30.122Z,58.20
2018-02-03T09:18:57.809Z,57.50
2018-02-03T09:21:25.446Z,57.60
2018-02-03T09:23:53.102Z,57.10
2018-02-03T09:26:20.766Z,56.80
2018-02-03T09:28:48.430Z,57.30
2018-02-03T09:31:15.940Z,57.10
2018-02-03T09:33:43.474Z,57.00
2018-02-03T09:36:11.978Z,57.00
2018-02-03T09:38:39.609Z,57.00
2018-02-03T09:41:07.170Z,57.00
2018-02-03T09:43:35.500Z,57.50
2018-02-03T09:46:03.014Z,57.40
2018-02-03T09:48:31.522Z,56.50
2018-02-03T09:50:59.118Z,56.50
2018-02-03T09:53:26.629Z,56.90
2018-02-03T09:55:54.171Z,56.10
2018-02-03T09:58:22.115Z,55.60
2018-02-03T10:00:49.978Z,55.20
2018-02-03T10:03:17.532Z,55.20
2018-02-03T10:05:45.078Z,55.00
2018-02-03T10:08:12.906Z,55.10
2018-02-03T10:10:41.170Z,53.80
2018-02-03T10:13:10.156Z,53.70
2018-02-03T10:15:38.810Z,53.40
2018-02-03T10:18:06.553Z,53.40
2018-02-03T10:20:34.130Z,53.80
2018-02-03T10:23:01.654Z,53.50
2018-02-03T10:25:29.346Z,53.10
2018-02-03T10:27:57.090Z,53.60
2018-02-03T10:30:24.846Z,53.90
2018-02-03T10:32:52.678Z,52.20
2018-02-03T10:35:21.650Z,51.40
2018-02-03T10:37:49.522Z,51.50
2018-02-03T10:40:17.201Z,51.70
2018-02-03T10:42:45.710Z,52.20
2018-02-03T10:45:13.429Z,52.20
2018-02-03T10:47:41.241Z,52.10
2018-02-03T10:50:08.978Z,51.80
2018-02-03T10:52:37.594Z,51.80
2018-02-03T10:55:05.227Z,51.80
2018-02-03T10:57:33.506Z,51.80
2018-02-03T11:00:02.119Z,51.00
2018-02-03T11:02:29.749Z,51.00
2018-02-03T11:04:58.378Z,50.70
2018-02-03T11:07:26.136Z,50.70
2018-02-03T11:09:53.710Z,50.40
2018-02-03T11:12:21.574Z,51.20
2018-02-03T11:14:49.456Z,51.60
2018-02-03T11:17:17.214Z,51.40
2018-02-03T11:19:44.966Z,51.40
2018-02-03T11:22:12.738Z,52.00
2018-02-03T11:24:40.554Z,52.10
2018-02-03T11:27:08.433Z,52.30
2018-02-03T11:29:36.418Z,51.70
2018-02-03T11:32:04.310Z,51.90
2018-02-03T11:34:32.177Z,51.70
2018-02-03T11:37:00.038Z,51.70
2018-02-03T11:39:27.914Z,51.80
2018-02-03T11:41:55.770Z,51.50
2018-02-03T11:44:23.639Z,52.10
2018-02-03T11:46:51.507Z,52.00
2018-02-03T11:49:19.369Z,52.10
2018-02-03T11:51:47.121Z,52.10
2018-02-03T11:54:14.714Z,51.60
2018-02-03T11:56:42.381Z,51.20
2018-02-03T11:59:10.034Z,51.70
2018-02-03T12:01:37.665Z,51.80
2018-02-03T12:04:05.373Z,51.40
2018-02-03T12:06:33.910Z,50.20
2018-02-03T12:09:01.572Z,50.10
2018-02-03T12:11:29.234Z,50.10
2018-02-03T12:13:57.101Z,49.50
2018-02-03T12:16:24.864Z,49.60
2018-02-03T12:18:52.628Z,47.90
2018-02-03T12:21:20.334Z,48.00
2018-02-03T12:23:48.771Z,47.80
2018-02-03T12:26:16.534Z,47.80
2018-02-03T12:28:44.196Z,47.60
2018-02-03T12:31:12.677Z,47.10
2018-02-03T12:33:40.389Z,47.10
2018-02-03T12:36:08.819Z,47.70
2018-02-03T12:38:36.481Z,47.60
2018-02-03T12:41:04.450Z,47.30
2018-02-03T12:43:32.154Z,47.00
2018-02-03T12:46:00.797Z,46.10
2018-02-03T12:48:28.562Z,46.00
2018-02-03T12:50:56.325Z,46.80
2018-02-03T12:53:24.030Z,45.80
2018-02-03T12:55:52.675Z,47.30
2018-02-03T12:58:20.644Z,47.30
2018-02-03T13:00:48.407Z,47.00
2018-02-03T13:03:16.067Z,46.20
2018-02-03T13:05:43.774Z,46.40
2018-02-03T13:08:12.137Z,47.50
2018-02-03T13:10:39.974Z,47.40
2018-02-03T13:13:07.882Z,46.40
2018-02-03T13:15:36.366Z,47.30
2018-02-03T13:18:04.846Z,47.10
2018-02-03T13:20:33.285Z,46.90
2018-02-03T13:23:01.259Z,46.90
2018-02-03T13:25:29.118Z,46.30
2018-02-03T13:27:56.822Z,46.90
2018-02-03T13:30:25.306Z,47.20
2018-02-03T13:32:53.742Z,46.70
2018-02-03T13:35:21.448Z,46.70
2018-02-03T13:37:49.986Z,47.20
2018-02-03T13:40:17.652Z,47.20
2018-02-03T13:42:45.354Z,47.00
2018-02-03T13:45:13.718Z,48.20
2018-02-03T13:47:41.397Z,48.20
2018-02-03T13:50:09.878Z,48.50
2018-02-03T13:52:38.414Z,48.90
2018-02-03T13:55:06.118Z,48.90
2018-02-03T13:57:34.658Z,48.90
2018-02-03T14:00:02.424Z,48.90
2018-02-03T14:02:30.126Z,48.60
2018-02-03T14:04:58.667Z,49.10
2018-02-03T14:07:26.434Z,49.10
2018-02-03T14:09:54.195Z,48.90
2018-02-03T14:12:21.902Z,48.60
2018-02-03T14:14:50.266Z,48.90
2018-02-03T14:17:17.942Z,48.80
2018-02-03T14:19:46.480Z,48.40
2018-02-03T14:22:14.142Z,48.30
2018-02-03T14:24:47.538Z,48.00
2018-02-03T14:27:15.405Z,47.70
2018-02-03T14:29:43.169Z,47.50
2018-02-03T14:32:10.933Z,47.50
2018-02-03T14:34:38.638Z,47.30
2018-02-03T14:37:07.120Z,47.50
2018-02-03T14:39:35.597Z,47.70
2018-02-03T14:42:03.238Z,47.60
2018-02-03T14:44:30.922Z,46.80
2018-02-03T14:46:58.586Z,47.30
2018-02-03T14:49:27.070Z,48.80
2018-02-03T14:51:55.707Z,47.80
2018-02-03T14:54:23.369Z,47.70
2018-02-03T14:56:50.897Z,47.50
2018-02-03T14:59:18.590Z,46.90
2018-02-03T15:01:46.294Z,46.60
2018-02-03T15:04:14.938Z,47.20
2018-02-03T15:06:42.599Z,46.60
2018-02-03T15:09:10.261Z,47.90
2018-02-03T15:11:38.230Z,47.70
2018-02-03T15:14:05.938Z,48.50
2018-02-03T15:16:34.373Z,49.00
2018-02-03T15:19:01.890Z,48.90
2018-02-03T15:21:30.357Z,48.80
2018-02-03T15:23:58.933Z,49.50
2018-02-03T15:26:26.698Z,49.50
2018-02-03T15:28:54.230Z,49.30
2018-02-03T15:31:21.878Z,49.30
2018-02-03T15:33:49.642Z,49.90
2018-02-03T15:36:17.509Z,51.00
2018-02-03T15:38:45.214Z,51.20
2018-02-03T15:41:13.590Z,50.00
2018-02-03T15:43:41.322Z,50.00
2018-02-03T15:46:09.077Z,51.00
2018-02-03T15:48:36.842Z,49.80
2018-02-03T15:51:04.550Z,50.30
2018-02-03T15:53:33.032Z,48.40
2018-02-03T15:56:01.566Z,48.50
2018-02-03T15:58:29.333Z,48.50
2018-02-03T16:00:57.094Z,48.90
2018-02-03T16:03:24.756Z,49.60
2018-02-03T16:05:52.326Z,50.60
2018-02-03T16:08:19.977Z,51.00
2018-02-03T16:10:47.532Z,50.80
2018-02-03T16:13:15.403Z,51.00
2018-02-03T16:15:43.065Z,51.90
2018-02-03T16:18:10.658Z,52.30
2018-02-03T16:20:38.388Z,52.20
2018-02-03T16:23:06.050Z,52.80
2018-02-03T16:25:33.711Z,53.20
2018-02-03T16:28:01.422Z,53.40
2018-02-03T16:30:29.854Z,53.60
2018-02-03T16:32:57.558Z,53.60
2018-02-03T16:35:25.280Z,53.40
2018-02-03T16:37:52.941Z,53.50
2018-02-03T16:40:20.707Z,53.80
2018-02-03T16:42:48.469Z,54.10
2018-02-03T16:45:16.014Z,54.10
2018-02-03T16:47:43.733Z,54.20
2018-02-03T16:50:12.171Z,54.90
2018-02-03T16:52:39.877Z,54.30
2018-02-03T16:55:08.416Z,54.80
2018-02-03T16:57:36.122Z,54.90
2018-02-03T17:00:04.630Z,55.10
2018-02-03T17:02:32.253Z,55.10
2018-02-03T17:04:59.989Z,54.70
2018-02-03T17:07:27.646Z,54.90
2018-02-03T17:09:55.307Z,55.00
2018-02-03T17:12:22.930Z,55.40
2018-02-03T17:14:50.498Z,55.40
2018-02-03T17:17:18.234Z,55.60
2018-02-03T17:19:46.713Z,55.90
2018-02-03T17:22:15.152Z,56.00
2018-02-03T17:24:42.814Z,55.50
2018-02-03T17:27:10.577Z,55.80
2018-02-03T17:29:38.239Z,56.10
2018-02-03T17:32:05.757Z,55.90
2018-02-03T17:34:34.107Z,56.20
2018-02-03T17:40:08.752Z,56.40
2018-02-03T17:42:36.382Z,56.50
2018-02-03T17:48:12.178Z,56.30
2018-02-03T17:50:39.814Z,56.40
2018-02-03T17:53:07.518Z,56.60
2018-02-03T17:55:41.598Z,56.90
2018-02-03T17:58:09.250Z,56.40
2018-02-03T18:00:36.842Z,56.80
2018-02-03T18:03:04.779Z,57.10
2018-02-03T18:05:32.543Z,56.70
2018-02-03T18:08:00.178Z,56.80
2018-02-03T18:10:27.866Z,56.80
2018-02-03T18:12:55.386Z,57.10
2018-02-03T18:15:23.230Z,57.20
2018-02-03T18:17:51.714Z,56.90
2018-02-03T18:20:20.152Z,57.40
2018-02-03T18:22:47.658Z,56.70
2018-02-03T18:25:16.090Z,56.80
2018-02-03T18:27:43.750Z,56.80
2018-02-03T18:30:11.617Z,56.80
2018-02-03T18:32:39.266Z,56.90
2018-02-03T18:35:07.043Z,57.00
2018-02-03T18:37:34.806Z,56.90
2018-02-03T18:40:02.675Z,57.00
2018-02-03T18:42:30.374Z,56.60
2018-02-03T18:44:58.034Z,56.50
2018-02-03T18:47:25.644Z,56.80
2018-02-03T18:49:53.421Z,56.60
2018-02-03T18:52:20.994Z,56.70
2018-02-03T18:54:48.643Z,56.80
2018-02-03T18:57:16.408Z,56.80
2018-02-03T18:59:44.171Z,56.80
2018-02-03T19:02:11.832Z,57.10
2018-02-03T19:04:39.362Z,57.10
2018-02-03T19:07:07.053Z,57.10
2018-02-03T19:09:34.802Z,57.20
2018-02-03T19:12:02.582Z,57.40
2018-02-03T19:14:30.286Z,57.60
2018-02-03T19:16:57.834Z,57.50
2018-02-03T19:19:25.346Z,57.70
2018-02-03T19:21:53.074Z,57.70
2018-02-03T19:24:21.550Z,57.60
2018-02-03T19:26:49.927Z,57.80
2018-02-03T19:29:18.409Z,57.80
2018-02-03T19:31:46.710Z,57.90
2018-02-03T19:34:14.458Z,57.80
2018-02-03T19:36:42.729Z,57.80
2018-02-03T19:39:11.686Z,57.50
2018-02-03T19:41:39.366Z,57.50
2018-02-03T19:44:07.048Z,57.20
2018-02-03T19:46:35.646Z,57.60
2018-02-03T19:49:03.254Z,57.50
2018-02-03T19:51:30.866Z,57.30
2018-02-03T19:53:58.460Z,57.50
2018-02-03T19:56:26.086Z,57.20
2018-02-03T19:58:53.693Z,57.30
2018-02-03T20:01:21.318Z,57.30
2018-02-03T20:03:48.939Z,57.10
2018-02-03T20:06:16.554Z,57.20
2018-02-03T20:08:44.289Z,57.10
2018-02-03T20:11:12.042Z,57.20
2018-02-03T20:13:40.422Z,57.60
2018-02-03T20:16:08.951Z,57.60
2018-02-03T20:18:36.662Z,57.60
2018-02-03T20:21:05.282Z,57.40
2018-02-03T20:23:32.902Z,57.40
2018-02-03T20:26:01.418Z,57.40
2018-02-03T20:28:29.138Z,57.30
2018-02-03T20:30:56.749Z,57.60
2018-02-03T20:33:24.357Z,57.20
2018-02-03T20:35:51.990Z,57.40
2018-02-03T20:38:19.602Z,57.30
2018-02-03T20:40:48.114Z,57.40
2018-02-03T20:43:15.850Z,57.40
2018-02-03T20:45:44.132Z,57.30
2018-02-03T20:48:11.989Z,57.30
2018-02-03T20:50:40.610Z,57.20
2018-02-03T20:53:08.342Z,57.10
2018-02-03T20:55:36.965Z,57.60
2018-02-03T20:58:04.590Z,57.50
2018-02-03T21:00:32.227Z,57.60
2018-02-03T21:03:00.746Z,57.60
2018-02-03T21:05:28.502Z,57.60
2018-02-03T21:07:56.138Z,57.80
2018-02-03T21:10:24.657Z,58.00
2018-02-03T21:12:52.418Z,58.00
2018-02-03T21:15:20.054Z,58.10
2018-02-03T21:17:47.682Z,57.70
2018-02-03T21:20:15.426Z,58.20
2018-02-03T21:22:43.001Z,57.80
2018-02-03T21:25:10.610Z,58.00
2018-02-03T21:27:38.256Z,58.00
2018-02-03T21:30:06.785Z,58.00
2018-02-03T21:32:34.537Z,57.90
2018-02-03T21:35:02.170Z,58.10
2018-02-03T21:37:30.706Z,58.10
2018-02-03T21:39:58.457Z,58.10
2018-02-03T21:42:26.094Z,58.40
2018-02-03T21:44:53.725Z,58.30
2018-02-03T21:47:22.386Z,58.60
2018-02-03T21:49:50.018Z,58.60
2018-02-03T21:52:17.655Z,58.50
2018-02-03T21:54:45.306Z,58.40
2018-02-03T21:57:13.919Z,58.80
2018-02-03T21:59:41.598Z,58.80
2018-02-03T22:02:09.256Z,59.00
2018-02-03T22:04:36.898Z,58.60
2018-02-03T22:07:04.546Z,58.60
2018-02-03T22:09:32.193Z,58.30
2018-02-03T22:12:00.839Z,58.40
2018-02-03T22:14:28.502Z,58.40
2018-02-03T22:16:56.166Z,58.70
2018-02-03T22:19:23.824Z,58.80
2018-02-03T22:21:51.480Z,59.00
2018-02-03T22:24:19.143Z,59.20
2018-02-03T22:26:46.803Z,58.90
2018-02-03T22:29:14.458Z,58.90
2018-02-03T22:31:42.129Z,58.80
2018-02-03T22:34:09.782Z,58.60
2018-02-03T22:36:37.462Z,58.60
2018-02-03T22:39:05.250Z,58.60
2018-02-03T22:41:33.811Z,58.40
2018-02-03T22:44:01.515Z,58.40
2018-02-03T22:46:29.135Z,58.80
2018-02-03T22:48:56.806Z,59.30
2018-02-03T22:51:24.474Z,59.10
2018-02-03T22:53:52.138Z,59.10
2018-02-03T22:56:20.796Z,59.10
2018-02-03T22:58:48.506Z,59.10
2018-02-03T23:01:17.192Z,59.00
2018-02-03T23:03:45.818Z,58.80
2018-02-03T23:06:14.478Z,59.10
2018-02-03T23:08:42.226Z,58.80
2018-02-03T23:11:10.814Z,58.80
2018-02-03T23:13:38.393Z,58.70
2018-02-03T23:16:06.185Z,59.00
2018-02-03T23:18:34.130Z,58.90
2018-02-03T23:21:02.002Z,59.10
2018-02-03T23:23:29.858Z,59.00
2018-02-03T23:25:57.610Z,59.00
2018-02-03T23:28:25.473Z,59.00
2018-02-03T23:30:53.342Z,59.00
2018-02-03T23:33:21.009Z,58.90
2018-02-03T23:35:48.798Z,59.20
2018-02-03T23:38:16.486Z,59.00
2018-02-03T23:40:44.178Z,59.00
2018-02-03T23:43:13.943Z,59.00
2018-02-03T23:45:41.560Z,59.00
2018-02-03T23:48:09.270Z,58.90
2018-02-03T23:50:36.894Z,59.00
2018-02-03T23:53:04.658Z,59.10
2018-02-03T23:55:32.359Z,58.90
2018-02-03T23:58:00.066Z,59.00
